createdAt,value
2018-07-01T00:04:57.010Z,16.50
2018-07-01T00:10:06.416Z,16.50
2018-07-01T00:12:40.910Z,16.40
2018-07-01T00:15:15.272Z,16.40
2018-07-01T00:20:23.782Z,16.50
2018-07-01T00:22:58.147Z,16.40
2018-07-01T00:25:32.672Z,16.30
2018-07-01T00:28:07.048Z,16.30
2018-07-01T00:30:41.498Z,16.30
2018-07-01T00:33:15.920Z,16.20
2018-07-01T00:35:50.273Z,16.20
2018-07-01T00:38:24.572Z,16.20
2018-07-01T00:40:58.851Z,16.20
2018-07-01T00:43:33.202Z,16.20
2018-07-01T00:46:07.648Z,16.30
2018-07-01T00:48:42.060Z,16.30
2018-07-01T00:51:16.454Z,16.20
2018-07-01T00:53:50.855Z,16.20
2018-07-01T00:58:59.359Z,16.00
2018-07-01T01:01:33.853Z,16.00
2018-07-01T01:04:08.163Z,16.00
2018-07-01T01:06:42.532Z,15.90
2018-07-01T01:09:16.882Z,15.80
2018-07-01T01:11:51.161Z,15.70
2018-07-01T01:14:25.560Z,15.70
2018-07-01T01:16:59.978Z,15.70
2018-07-01T01:19:34.299Z,15.70
2018-07-01T01:22:08.622Z,15.60
2018-07-01T01:24:42.963Z,15.60
2018-07-01T01:27:17.368Z,15.60
2018-07-01T01:29:51.769Z,15.60
2018-07-01T01:32:26.067Z,15.60
2018-07-01T01:35:00.351Z,15.60
2018-07-01T01:37:35.185Z,15.50
2018-07-01T01:40:11.438Z,15.50
2018-07-01T01:42:51.179Z,15.50
2018-07-01T01:45:37.227Z,15.40
2018-07-01T01:48:17.023Z,15.30
2018-07-01T01:51:05.443Z,15.30
2018-07-01T01:53:44.199Z,15.30
2018-07-01T01:56:27.102Z,15.30
2018-07-01T01:59:06.348Z,15.30
2018-07-01T02:01:46.923Z,15.30
2018-07-01T02:04:25.719Z,15.20
2018-07-01T02:07:03.722Z,15.20
2018-07-01T02:09:38.753Z,15.20
2018-07-01T02:14:54.580Z,15.10
2018-07-01T02:20:17.848Z,15.00
2018-07-01T02:22:56.110Z,14.90
2018-07-01T02:25:32.425Z,15.00
2018-07-01T02:28:06.814Z,15.00
2018-07-01T02:30:43.079Z,14.90
2018-07-01T02:35:51.604Z,14.80
2018-07-01T02:38:26.021Z,14.70
2018-07-01T02:41:00.423Z,14.80
2018-07-01T02:43:34.686Z,14.70
2018-07-01T02:46:09.203Z,14.70
2018-07-01T02:48:43.573Z,14.70
2018-07-01T02:51:17.861Z,14.70
2018-07-01T02:53:52.162Z,14.70
2018-07-01T02:56:26.506Z,14.60
2018-07-01T02:59:00.832Z,14.60
2018-07-01T03:01:35.169Z,14.60
2018-07-01T03:04:09.516Z,14.60
2018-07-01T03:06:43.819Z,14.60
2018-07-01T03:09:18.006Z,14.50
2018-07-01T03:11:52.309Z,14.50
2018-07-01T03:14:26.537Z,14.50
2018-07-01T03:17:01.001Z,14.40
2018-07-01T03:19:35.380Z,14.40
2018-07-01T03:22:09.830Z,14.40
2018-07-01T03:24:44.247Z,14.40
2018-07-01T03:27:18.504Z,14.40
2018-07-01T03:29:52.860Z,14.30
2018-07-01T03:35:04.567Z,14.30
2018-07-01T03:37:42.331Z,14.20
2018-07-01T03:40:16.593Z,14.20
2018-07-01T03:42:50.958Z,14.10
2018-07-01T03:45:25.230Z,14.10
2018-07-01T03:47:59.787Z,14.20
2018-07-01T03:50:34.171Z,14.20
2018-07-01T03:53:08.495Z,14.20
2018-07-01T03:55:42.753Z,14.20
2018-07-01T03:58:17.183Z,14.20
2018-07-01T04:00:51.630Z,14.20
2018-07-01T04:03:26.015Z,14.10
2018-07-01T04:06:00.428Z,14.00
2018-07-01T04:08:34.758Z,14.00
2018-07-01T04:11:09.192Z,14.00
2018-07-01T04:16:17.784Z,13.80
2018-07-01T04:18:52.130Z,13.80
2018-07-01T04:21:26.969Z,13.90
2018-07-01T04:24:01.268Z,14.00
2018-07-01T04:26:35.765Z,14.10
2018-07-01T04:29:10.184Z,14.20
2018-07-01T04:31:44.596Z,14.20
2018-07-01T04:34:18.943Z,14.30
2018-07-01T04:36:53.467Z,14.30
2018-07-01T04:39:27.864Z,14.40
2018-07-01T04:42:02.235Z,14.30
2018-07-01T04:44:36.539Z,14.40
2018-07-01T04:47:10.876Z,14.50
2018-07-01T04:49:45.303Z,14.60
2018-07-01T04:52:19.938Z,14.50
2018-07-01T04:54:54.288Z,14.60
2018-07-01T04:57:28.925Z,14.60
2018-07-01T05:00:05.341Z,14.60
2018-07-01T05:02:40.272Z,14.70
2018-07-01T05:05:14.772Z,14.70
2018-07-01T05:07:49.310Z,14.70
2018-07-01T05:10:23.713Z,14.80
2018-07-01T05:12:58.030Z,14.70
2018-07-01T05:15:32.353Z,14.60
2018-07-01T05:18:06.691Z,14.70
2018-07-01T05:20:41.008Z,14.70
2018-07-01T05:23:17.469Z,14.80
2018-07-01T05:25:51.786Z,14.80
2018-07-01T05:28:31.674Z,14.90
2018-07-01T05:31:06.250Z,14.90
2018-07-01T05:33:40.826Z,15.00
2018-07-01T05:36:15.233Z,15.10
2018-07-01T05:38:54.229Z,15.10
2018-07-01T05:41:28.540Z,15.10
2018-07-01T05:44:02.875Z,15.00
2018-07-01T05:49:11.267Z,15.20
2018-07-01T05:51:45.593Z,15.30
2018-07-01T05:56:56.189Z,15.40
2018-07-01T05:59:30.615Z,15.50
2018-07-01T06:02:04.886Z,15.50
2018-07-01T06:04:39.184Z,15.40
2018-07-01T06:09:47.474Z,15.70
2018-07-01T06:12:21.774Z,15.80
2018-07-01T06:14:56.231Z,16.00
2018-07-01T06:17:30.474Z,16.00
2018-07-01T06:20:07.134Z,16.10
2018-07-01T06:22:41.538Z,16.10
2018-07-01T06:25:15.876Z,16.00
2018-07-01T06:27:50.273Z,16.10
2018-07-01T06:30:24.640Z,16.20
2018-07-01T06:32:59.014Z,16.20
2018-07-01T06:38:07.568Z,16.40
2018-07-01T06:40:41.965Z,16.50
2018-07-01T06:43:16.317Z,16.60
2018-07-01T06:45:50.676Z,16.60
2018-07-01T06:48:24.907Z,16.70
2018-07-01T06:50:59.176Z,16.80
2018-07-01T06:53:33.480Z,16.90
2018-07-01T06:56:07.878Z,16.70
2018-07-01T06:58:42.208Z,16.80
2018-07-01T07:01:16.582Z,16.90
2018-07-01T07:03:50.926Z,17.00
2018-07-01T07:06:25.320Z,16.90
2018-07-01T07:08:59.839Z,17.00
2018-07-01T07:11:34.230Z,17.10
2018-07-01T07:14:09.044Z,17.30
2018-07-01T07:16:43.735Z,17.40
2018-07-01T07:21:52.650Z,17.40
2018-07-01T07:24:27.420Z,17.40
2018-07-01T07:27:01.967Z,17.50
2018-07-01T07:29:36.639Z,17.60
2018-07-01T07:32:11.417Z,17.60
2018-07-01T07:34:46.045Z,17.70
2018-07-01T07:37:20.702Z,17.80
2018-07-01T07:39:55.300Z,17.90
2018-07-01T07:42:29.947Z,17.80
2018-07-01T07:45:04.687Z,17.90
2018-07-01T07:47:39.250Z,18.00
2018-07-01T07:50:13.972Z,18.10
2018-07-01T07:52:48.730Z,18.10
2018-07-01T07:57:57.572Z,18.10
2018-07-01T08:00:32.405Z,18.20
2018-07-01T08:03:07.298Z,18.30
2018-07-01T08:05:41.863Z,18.60
2018-07-01T08:08:16.568Z,18.90
2018-07-01T08:10:51.351Z,18.80
2018-07-01T08:13:26.036Z,18.90
2018-07-01T08:16:00.874Z,18.90
2018-07-01T08:18:35.694Z,19.00
2018-07-01T08:21:10.561Z,19.20
2018-07-01T08:23:45.231Z,19.30
2018-07-01T08:26:19.842Z,19.30
2018-07-01T08:28:54.583Z,19.30
2018-07-01T08:31:29.166Z,19.40
2018-07-01T08:34:03.757Z,19.60
2018-07-01T08:36:38.456Z,19.60
2018-07-01T08:42:35.314Z,19.60
2018-07-01T08:50:18.801Z,19.70
2018-07-01T08:52:53.530Z,19.90
2018-07-01T08:58:02.375Z,20.10
2018-07-01T09:03:11.360Z,20.30
2018-07-01T09:05:46.056Z,20.40
2018-07-01T09:08:20.647Z,20.60
2018-07-01T09:13:29.401Z,20.50
2018-07-01T09:16:04.123Z,20.60
2018-07-01T09:18:38.677Z,20.70
2018-07-01T09:21:13.274Z,20.80
2018-07-01T09:23:47.721Z,20.90
2018-07-01T09:26:22.353Z,20.70
2018-07-01T09:28:57.000Z,20.70
2018-07-01T09:31:31.820Z,20.90
2018-07-01T09:34:06.558Z,21.00
2018-07-01T09:36:41.390Z,21.10
2018-07-01T09:39:16.416Z,21.10
2018-07-01T09:41:52.579Z,21.00
2018-07-01T09:44:27.289Z,21.10
2018-07-01T09:49:36.283Z,21.00
2018-07-01T09:52:11.072Z,21.10
2018-07-01T09:54:45.901Z,21.10
2018-07-01T09:57:20.599Z,21.20
2018-07-01T09:59:55.138Z,21.30
2018-07-01T10:02:29.967Z,21.50
2018-07-01T10:05:04.790Z,21.50
2018-07-01T10:07:39.621Z,21.50
2018-07-01T10:10:14.482Z,21.50
2018-07-01T10:12:49.119Z,21.40
2018-07-01T10:17:57.932Z,21.50
2018-07-01T10:20:32.629Z,21.60
2018-07-01T10:23:07.249Z,21.80
2018-07-01T10:25:41.935Z,21.70
2018-07-01T10:28:16.720Z,21.90
2018-07-01T10:30:51.494Z,22.10
2018-07-01T10:33:26.083Z,22.10
2018-07-01T10:36:00.636Z,22.20
2018-07-01T10:38:35.324Z,22.10
2018-07-01T10:41:09.835Z,22.00
2018-07-01T10:43:44.672Z,22.30
2018-07-01T10:46:19.399Z,22.50
2018-07-01T10:48:54.427Z,22.50
2018-07-01T10:51:29.324Z,22.60
2018-07-01T10:54:04.000Z,22.60
2018-07-01T10:59:13.149Z,22.30
2018-07-01T11:01:47.593Z,22.20
2018-07-01T11:04:22.044Z,22.40
2018-07-01T11:06:56.518Z,22.50
2018-07-01T11:12:05.606Z,22.40
2018-07-01T11:14:40.279Z,22.50
2018-07-01T11:17:14.776Z,22.60
2018-07-01T11:19:49.310Z,22.70
2018-07-01T11:22:24.075Z,22.60
2018-07-01T11:24:59.288Z,22.70
2018-07-01T11:27:34.021Z,22.60
2018-07-01T11:30:08.411Z,22.50
2018-07-01T11:32:43.001Z,22.70
2018-07-01T11:35:17.639Z,22.80
2018-07-01T11:37:52.508Z,22.70
2018-07-01T11:40:27.110Z,22.80
2018-07-01T11:43:01.730Z,23.00
2018-07-01T11:45:36.366Z,22.90
2018-07-01T11:48:11.152Z,23.00
2018-07-01T11:50:45.882Z,23.10
2018-07-01T11:53:20.372Z,23.10
2018-07-01T11:55:55.061Z,23.00
2018-07-01T11:58:29.590Z,23.00
2018-07-01T12:01:04.101Z,23.20
2018-07-01T12:06:12.865Z,23.10
2018-07-01T12:08:47.410Z,23.00
2018-07-01T12:11:21.997Z,23.10
2018-07-01T12:13:56.667Z,23.10
2018-07-01T12:21:40.016Z,23.00
2018-07-01T12:26:48.976Z,23.20
2018-07-01T12:29:23.463Z,23.30
2018-07-01T12:31:58.021Z,23.40
2018-07-01T12:34:32.734Z,23.40
2018-07-01T12:37:07.321Z,23.60
2018-07-01T12:39:42.008Z,23.80
2018-07-01T12:42:16.933Z,23.90
2018-07-01T12:44:51.577Z,23.90
2018-07-01T12:47:26.195Z,23.90
2018-07-01T12:50:00.739Z,24.00
2018-07-01T12:52:35.277Z,23.80
2018-07-01T12:55:09.947Z,23.80
2018-07-01T12:57:44.487Z,23.90
2018-07-01T13:02:53.350Z,24.00
2018-07-01T13:05:27.880Z,24.00
2018-07-01T13:08:02.582Z,24.00
2018-07-01T13:10:37.244Z,24.00
2018-07-01T13:13:11.844Z,24.10
2018-07-01T13:15:46.499Z,24.10
2018-07-01T13:18:21.066Z,23.80
2018-07-01T13:20:55.688Z,23.80
2018-07-01T13:23:30.321Z,24.00
2018-07-01T13:26:05.093Z,23.90
2018-07-01T13:31:14.098Z,24.10
2018-07-01T13:33:48.868Z,24.20
2018-07-01T13:36:23.336Z,24.20
2018-07-01T13:38:58.029Z,24.20
2018-07-01T13:41:32.438Z,24.20
2018-07-01T13:44:07.679Z,24.30
2018-07-01T13:46:42.063Z,24.40
2018-07-01T13:49:16.691Z,24.40
2018-07-01T13:51:51.083Z,24.50
2018-07-01T13:54:25.649Z,24.50
2018-07-01T13:57:00.289Z,24.20
2018-07-01T13:59:34.880Z,24.20
2018-07-01T14:02:09.303Z,24.00
2018-07-01T14:04:43.881Z,24.20
2018-07-01T14:07:18.465Z,24.20
2018-07-01T14:09:52.953Z,24.40
2018-07-01T14:12:27.685Z,24.70
2018-07-01T14:20:11.649Z,24.70
2018-07-01T14:22:46.232Z,24.60
2018-07-01T14:25:20.826Z,24.40
2018-07-01T14:27:55.499Z,24.50
2018-07-01T14:33:04.789Z,24.90
2018-07-01T14:35:39.506Z,24.90
2018-07-01T14:38:14.013Z,24.90
2018-07-01T14:45:57.401Z,24.70
2018-07-01T14:48:31.936Z,24.80
2018-07-01T14:51:06.804Z,24.80
2018-07-01T14:53:41.453Z,24.90
2018-07-01T14:56:16.117Z,24.70
2018-07-01T14:58:50.828Z,24.70
2018-07-01T15:01:25.527Z,24.70
2018-07-01T15:06:34.528Z,24.80
2018-07-01T15:09:10.456Z,24.80
2018-07-01T15:11:44.954Z,24.70
2018-07-01T15:14:19.377Z,24.70
2018-07-01T15:16:53.886Z,24.70
2018-07-01T15:19:28.404Z,24.60
2018-07-01T15:22:03.112Z,24.80
2018-07-01T15:24:37.707Z,25.00
2018-07-01T15:27:12.212Z,25.10
2018-07-01T15:29:46.822Z,25.40
2018-07-01T15:32:21.365Z,25.20
2018-07-01T15:34:56.048Z,25.20
2018-07-01T15:37:30.629Z,25.20
2018-07-01T15:40:05.673Z,25.20
2018-07-01T15:42:40.292Z,25.20
2018-07-01T15:45:14.737Z,25.20
2018-07-01T15:47:49.338Z,25.10
2018-07-01T15:50:24.029Z,25.20
2018-07-01T15:52:58.906Z,25.40
2018-07-01T15:55:33.430Z,25.80
2018-07-01T15:58:08.100Z,26.10
2018-07-01T16:00:42.758Z,26.50
2018-07-01T16:03:17.514Z,26.60
2018-07-01T16:05:52.149Z,26.80
2018-07-01T16:08:26.681Z,27.10
2018-07-01T16:11:01.292Z,27.50
2018-07-01T16:13:35.914Z,27.90
2018-07-01T16:16:10.551Z,27.80
2018-07-01T16:18:45.078Z,28.30
2018-07-01T16:21:19.615Z,28.50
2018-07-01T16:23:54.102Z,29.00
2018-07-01T16:26:33.862Z,29.40
2018-07-01T16:29:08.307Z,30.00
2018-07-01T16:34:17.228Z,30.10
2018-07-01T16:39:25.966Z,30.30
2018-07-01T16:42:00.634Z,30.80
2018-07-01T16:44:35.368Z,31.10
2018-07-01T16:47:09.925Z,30.90
2018-07-01T16:49:44.538Z,30.80
2018-07-01T16:52:19.477Z,31.00
2018-07-01T16:54:54.098Z,31.50
2018-07-01T16:57:28.695Z,31.70
2018-07-01T17:00:03.172Z,31.70
2018-07-01T17:02:37.797Z,32.10
2018-07-01T17:05:12.363Z,32.40
2018-07-01T17:07:46.812Z,32.60
2018-07-01T17:10:21.394Z,32.70
2018-07-01T17:12:55.973Z,32.90
2018-07-01T17:15:30.609Z,32.50
2018-07-01T17:18:05.251Z,32.00
2018-07-01T17:20:39.955Z,32.00
2018-07-01T17:23:14.722Z,32.30
2018-07-01T17:25:53.466Z,32.00
2018-07-01T17:28:28.059Z,32.00
2018-07-01T17:31:08.113Z,32.00
2018-07-01T17:33:42.810Z,31.40
2018-07-01T17:36:17.302Z,30.70
2018-07-01T17:38:51.857Z,29.90
2018-07-01T17:41:26.556Z,29.70
2018-07-01T17:44:01.026Z,29.40
2018-07-01T17:46:35.490Z,28.80
2018-07-01T17:49:10.070Z,28.90
2018-07-01T17:51:44.854Z,29.10
2018-07-01T17:54:19.409Z,28.60
2018-07-01T17:56:54.129Z,28.50
2018-07-01T17:59:28.806Z,27.90
2018-07-01T18:02:03.786Z,27.50
2018-07-01T18:04:38.458Z,27.20
2018-07-01T18:07:13.027Z,26.60
2018-07-01T18:09:47.809Z,25.70
2018-07-01T18:12:22.440Z,25.20
2018-07-01T18:14:57.199Z,24.80
2018-07-01T18:17:31.708Z,24.30
2018-07-01T18:20:06.543Z,23.80
2018-07-01T18:23:09.756Z,23.50
2018-07-01T18:25:15.711Z,23.30
2018-07-01T18:30:24.905Z,22.70
2018-07-01T18:32:59.627Z,22.60
2018-07-01T18:35:34.293Z,22.50
2018-07-01T18:38:09.066Z,22.50
2018-07-01T18:40:43.553Z,22.50
2018-07-01T18:43:18.022Z,22.40
2018-07-01T18:48:26.604Z,22.00
2018-07-01T18:51:01.021Z,21.70
2018-07-01T18:53:35.504Z,21.60
2018-07-01T18:58:43.943Z,21.40
2018-07-01T19:03:52.396Z,21.20
2018-07-01T19:06:26.885Z,21.00
2018-07-01T19:09:01.396Z,20.90
2018-07-01T19:11:35.812Z,20.70
2018-07-01T19:14:10.126Z,20.60
2018-07-01T19:16:44.554Z,20.50
2018-07-01T19:19:18.846Z,20.50
2018-07-01T19:21:53.219Z,20.40
2018-07-01T19:24:27.585Z,20.30
2018-07-01T19:29:36.131Z,20.10
2018-07-01T19:32:10.548Z,20.10
2018-07-01T19:34:45.006Z,20.10
2018-07-01T19:37:19.305Z,20.10
2018-07-01T19:39:53.674Z,19.80
2018-07-01T19:42:28.060Z,19.70
2018-07-01T19:45:02.299Z,19.70
2018-07-01T19:47:36.610Z,19.60
2018-07-01T19:50:11.162Z,19.50
2018-07-01T19:52:45.662Z,19.30
2018-07-01T19:55:20.146Z,19.30
2018-07-01T19:57:54.627Z,19.20
2018-07-01T20:00:29.063Z,19.10
2018-07-01T20:03:03.505Z,19.00
2018-07-01T20:05:37.829Z,19.00
2018-07-01T20:08:12.130Z,19.00
2018-07-01T20:13:20.554Z,18.80
2018-07-01T20:15:54.986Z,18.80
2018-07-01T20:18:29.429Z,18.70
2018-07-01T20:21:03.772Z,18.60
2018-07-01T20:23:38.024Z,18.60
2018-07-01T20:26:12.487Z,18.50
2018-07-01T20:28:46.908Z,18.50
2018-07-01T20:31:21.299Z,18.40
2018-07-01T20:33:55.595Z,18.30
2018-07-01T20:36:29.945Z,18.20
2018-07-01T20:39:08.242Z,18.10
2018-07-01T20:41:42.646Z,18.00
2018-07-01T20:44:16.922Z,18.00
2018-07-01T20:46:51.342Z,17.90
2018-07-01T20:49:25.552Z,17.90
2018-07-01T20:51:59.858Z,17.90
2018-07-01T20:54:34.102Z,17.80
2018-07-01T20:57:08.500Z,17.70
2018-07-01T20:59:42.947Z,17.70
2018-07-01T21:02:17.201Z,17.70
2018-07-01T21:04:51.538Z,17.60
2018-07-01T21:10:00.102Z,17.50
2018-07-01T21:12:34.598Z,17.40
2018-07-01T21:15:08.900Z,17.40
2018-07-01T21:17:43.289Z,17.40
2018-07-01T21:20:17.693Z,17.40
2018-07-01T21:22:52.086Z,17.30
2018-07-01T21:25:26.457Z,17.40
2018-07-01T21:28:00.799Z,17.40
2018-07-01T21:30:35.249Z,17.30
2018-07-01T21:33:09.626Z,17.30
2018-07-01T21:35:44.262Z,17.30
2018-07-01T21:38:18.669Z,17.20
2018-07-01T21:40:53.064Z,17.20
2018-07-01T21:43:27.303Z,17.20
2018-07-01T21:48:35.786Z,17.10
2018-07-01T21:51:10.154Z,17.00
2018-07-01T21:53:44.386Z,17.00
2018-07-01T21:56:18.796Z,16.90
2018-07-01T21:58:53.522Z,16.80
2018-07-01T22:04:02.142Z,16.70
2018-07-01T22:09:45.321Z,16.60
2018-07-01T22:12:31.154Z,16.60
2018-07-01T22:15:21.405Z,16.50
2018-07-01T22:17:56.873Z,16.50
2018-07-01T22:20:31.938Z,16.50
2018-07-01T22:23:06.379Z,16.50
2018-07-01T22:25:40.905Z,16.50
2018-07-01T22:28:15.218Z,16.50
2018-07-01T22:30:49.514Z,16.50
2018-07-01T22:33:23.827Z,16.40
2018-07-01T22:35:58.125Z,16.40
2018-07-01T22:41:06.722Z,16.30
2018-07-01T22:43:41.141Z,16.30
2018-07-01T22:46:15.434Z,16.30
2018-07-01T22:48:49.899Z,16.30
2018-07-01T22:51:24.411Z,16.30
2018-07-01T22:53:58.832Z,16.30
2018-07-01T22:56:33.699Z,16.30
2018-07-01T22:59:08.095Z,16.20
2018-07-01T23:03:00.421Z,16.20
2018-07-01T23:05:34.970Z,16.20
2018-07-01T23:08:09.343Z,16.10
2018-07-01T23:10:43.670Z,16.00
2018-07-01T23:13:18.066Z,15.90
2018-07-01T23:15:52.412Z,15.60
2018-07-01T23:18:27.136Z,15.40
2018-07-01T23:23:35.606Z,15.40
2018-07-01T23:26:09.951Z,15.40
2018-07-01T23:28:44.275Z,15.40
2018-07-01T23:31:18.792Z,15.30
2018-07-01T23:33:53.180Z,15.10
2018-07-01T23:36:27.570Z,15.20
2018-07-01T23:39:01.988Z,15.20
2018-07-01T23:41:36.346Z,15.20
2018-07-01T23:44:10.665Z,15.30
2018-07-01T23:46:45.008Z,15.30
2018-07-01T23:49:19.250Z,15.30
2018-07-01T23:51:53.663Z,15.30
2018-07-01T23:54:28.447Z,15.30
2018-07-01T23:57:03.066Z,15.30
2018-07-01T23:59:37.509Z,15.20
